sensor_id;sensor_type;location;lat;lon;timestamp;temperature;humidity
29345;DHT22;16339;48.748;2.222;2023-04-25T00:00:06;13.70;94.60
29345;DHT22;16339;48.748;2.222;2023-04-25T00:02:36;13.60;94.70
29345;DHT22;16339;48.748;2.222;2023-04-25T00:05:08;13.60;94.70
29345;DHT22;16339;48.748;2.222;2023-04-25T00:07:36;13.50;94.50
29345;DHT22;16339;48.748;2.222;2023-04-25T00:10:08;13.50;94.40
29345;DHT22;16339;48.748;2.222;2023-04-25T00:12:38;13.40;94.60
29345;DHT22;16339;48.748;2.222;2023-04-25T00:15:07;13.40;94.70
29345;DHT22;16339;48.748;2.222;2023-04-25T00:17:36;13.50;94.80
29345;DHT22;16339;48.748;2.222;2023-04-25T00:20:10;13.40;94.50
29345;DHT22;16339;48.748;2.222;2023-04-25T00:22:39;13.40;94.50
29345;DHT22;16339;48.748;2.222;2023-04-25T00:25:08;13.40;94.40
29345;DHT22;16339;48.748;2.222;2023-04-25T00:27:36;13.40;94.10
29345;DHT22;16339;48.748;2.222;2023-04-25T00:30:08;13.40;94.40
29345;DHT22;16339;48.748;2.222;2023-04-25T00:32:37;13.30;93.90
29345;DHT22;16339;48.748;2.222;2023-04-25T00:35:09;13.30;93.90
29345;DHT22;16339;48.748;2.222;2023-04-25T00:37:37;13.20;93.70
29345;DHT22;16339;48.748;2.222;2023-04-25T00:40:07;13.20;93.60
29345;DHT22;16339;48.748;2.222;2023-04-25T00:42:37;13.10;93.80
29345;DHT22;16339;48.748;2.222;2023-04-25T00:45:09;13.00;93.50
29345;DHT22;16339;48.748;2.222;2023-04-25T00:47:42;13.00;93.60
29345;DHT22;16339;48.748;2.222;2023-04-25T00:50:14;12.90;93.80
29345;DHT22;16339;48.748;2.222;2023-04-25T00:52:44;12.90;93.70
29345;DHT22;16339;48.748;2.222;2023-04-25T00:55:13;12.90;93.60
29345;DHT22;16339;48.748;2.222;2023-04-25T00:57:42;12.90;93.40
29345;DHT22;16339;48.748;2.222;2023-04-25T01:00:11;12.80;93.50
29345;DHT22;16339;48.748;2.222;2023-04-25T01:02:40;12.70;93.20
29345;DHT22;16339;48.748;2.222;2023-04-25T01:05:13;12.70;93.30
29345;DHT22;16339;48.748;2.222;2023-04-25T01:07:41;12.70;93.70
29345;DHT22;16339;48.748;2.222;2023-04-25T01:10:10;12.70;93.40
29345;DHT22;16339;48.748;2.222;2023-04-25T01:12:39;12.70;93.50
29345;DHT22;16339;48.748;2.222;2023-04-25T01:15:09;12.70;93.50
29345;DHT22;16339;48.748;2.222;2023-04-25T01:17:37;12.70;93.40
29345;DHT22;16339;48.748;2.222;2023-04-25T01:20:08;12.70;93.50
29345;DHT22;16339;48.748;2.222;2023-04-25T01:22:40;12.70;93.40
29345;DHT22;16339;48.748;2.222;2023-04-25T01:25:09;12.70;93.40
29345;DHT22;16339;48.748;2.222;2023-04-25T01:27:38;12.70;93.50
29345;DHT22;16339;48.748;2.222;2023-04-25T01:30:08;12.60;93.40
29345;DHT22;16339;48.748;2.222;2023-04-25T01:32:37;12.60;93.40
29345;DHT22;16339;48.748;2.222;2023-04-25T01:35:08;12.60;93.40
29345;DHT22;16339;48.748;2.222;2023-04-25T01:37:40;12.60;93.10
29345;DHT22;16339;48.748;2.222;2023-04-25T01:40:10;12.60;93.10
29345;DHT22;16339;48.748;2.222;2023-04-25T01:42:42;12.60;93.40
29345;DHT22;16339;48.748;2.222;2023-04-25T01:45:12;12.60;93.40
29345;DHT22;16339;48.748;2.222;2023-04-25T01:47:40;12.70;93.60
29345;DHT22;16339;48.748;2.222;2023-04-25T01:50:12;12.70;93.60
29345;DHT22;16339;48.748;2.222;2023-04-25T01:52:44;12.70;93.60
29345;DHT22;16339;48.748;2.222;2023-04-25T01:55:12;12.80;93.60
29345;DHT22;16339;48.748;2.222;2023-04-25T01:57:41;12.80;93.40
29345;DHT22;16339;48.748;2.222;2023-04-25T02:00:11;12.90;93.50
29345;DHT22;16339;48.748;2.222;2023-04-25T02:02:40;12.80;93.50
29345;DHT22;16339;48.748;2.222;2023-04-25T02:05:09;12.80;93.40
29345;DHT22;16339;48.748;2.222;2023-04-25T02:07:38;12.80;93.70
29345;DHT22;16339;48.748;2.222;2023-04-25T02:10:09;12.80;93.60
29345;DHT22;16339;48.748;2.222;2023-04-25T02:12:38;12.80;93.40
29345;DHT22;16339;48.748;2.222;2023-04-25T02:15:07;12.80;93.50
29345;DHT22;16339;48.748;2.222;2023-04-25T02:17:36;12.80;93.40
29345;DHT22;16339;48.748;2.222;2023-04-25T02:20:06;12.80;93.20
29345;DHT22;16339;48.748;2.222;2023-04-25T02:22:35;12.80;93.20
29345;DHT22;16339;48.748;2.222;2023-04-25T02:25:05;12.80;93.00
29345;DHT22;16339;48.748;2.222;2023-04-25T02:27:37;12.80;93.10
29345;DHT22;16339;48.748;2.222;2023-04-25T02:30:06;12.80;93.10
29345;DHT22;16339;48.748;2.222;2023-04-25T02:32:35;12.80;93.00
29345;DHT22;16339;48.748;2.222;2023-04-25T02:35:04;12.80;93.00
29345;DHT22;16339;48.748;2.222;2023-04-25T02:37:34;12.60;92.90
29345;DHT22;16339;48.748;2.222;2023-04-25T02:40:04;12.60;93.10
29345;DHT22;16339;48.748;2.222;2023-04-25T02:42:33;12.60;93.30
29345;DHT22;16339;48.748;2.222;2023-04-25T02:45:05;12.50;93.30
29345;DHT22;16339;48.748;2.222;2023-04-25T02:47:34;12.60;93.60
29345;DHT22;16339;48.748;2.222;2023-04-25T02:50:04;12.60;93.60
29345;DHT22;16339;48.748;2.222;2023-04-25T02:52:33;12.50;93.70
29345;DHT22;16339;48.748;2.222;2023-04-25T02:55:01;12.40;93.70
29345;DHT22;16339;48.748;2.222;2023-04-25T02:57:31;12.50;93.80
29345;DHT22;16339;48.748;2.222;2023-04-25T02:59:59;12.60;93.90
29345;DHT22;16339;48.748;2.222;2023-04-25T03:02:32;12.70;93.90
29345;DHT22;16339;48.748;2.222;2023-04-25T03:05:00;12.70;93.80
29345;DHT22;16339;48.748;2.222;2023-04-25T03:07:29;12.70;93.80
29345;DHT22;16339;48.748;2.222;2023-04-25T03:09:58;12.70;93.80
29345;DHT22;16339;48.748;2.222;2023-04-25T03:12:26;12.70;93.70
29345;DHT22;16339;48.748;2.222;2023-04-25T03:14:55;12.70;93.80
29345;DHT22;16339;48.748;2.222;2023-04-25T03:17:26;12.70;93.80
29345;DHT22;16339;48.748;2.222;2023-04-25T03:19:57;12.70;93.70
29345;DHT22;16339;48.748;2.222;2023-04-25T03:22:26;12.70;93.80
29345;DHT22;16339;48.748;2.222;2023-04-25T03:24:55;12.70;93.60
29345;DHT22;16339;48.748;2.222;2023-04-25T03:27:23;12.70;93.60
29345;DHT22;16339;48.748;2.222;2023-04-25T03:29:52;12.70;93.60
29345;DHT22;16339;48.748;2.222;2023-04-25T03:32:21;12.70;93.50
29345;DHT22;16339;48.748;2.222;2023-04-25T03:34:49;12.70;93.60
29345;DHT22;16339;48.748;2.222;2023-04-25T03:37:21;12.70;93.60
29345;DHT22;16339;48.748;2.222;2023-04-25T03:39:49;12.60;93.40
29345;DHT22;16339;48.748;2.222;2023-04-25T03:42:18;12.60;93.40
29345;DHT22;16339;48.748;2.222;2023-04-25T03:44:48;12.60;93.40
29345;DHT22;16339;48.748;2.222;2023-04-25T03:47:17;12.60;93.30
29345;DHT22;16339;48.748;2.222;2023-04-25T03:49:45;12.60;93.20
29345;DHT22;16339;48.748;2.222;2023-04-25T03:52:20;12.60;93.30
29345;DHT22;16339;48.748;2.222;2023-04-25T03:54:48;12.70;93.20
29345;DHT22;16339;48.748;2.222;2023-04-25T03:57:17;12.70;93.00
29345;DHT22;16339;48.748;2.222;2023-04-25T03:59:46;12.60;92.90
29345;DHT22;16339;48.748;2.222;2023-04-25T04:02:14;12.60;92.80
29345;DHT22;16339;48.748;2.222;2023-04-25T04:04:43;12.60;92.90
29345;DHT22;16339;48.748;2.222;2023-04-25T04:07:12;12.60;93.00
29345;DHT22;16339;48.748;2.222;2023-04-25T04:09:43;12.60;93.10
29345;DHT22;16339;48.748;2.222;2023-04-25T04:12:12;12.50;93.00
29345;DHT22;16339;48.748;2.222;2023-04-25T04:14:41;12.60;93.20
29345;DHT22;16339;48.748;2.222;2023-04-25T04:17:09;12.60;93.10
29345;DHT22;16339;48.748;2.222;2023-04-25T04:19:38;12.50;93.10
29345;DHT22;16339;48.748;2.222;2023-04-25T04:22:07;12.50;93.20
29345;DHT22;16339;48.748;2.222;2023-04-25T04:24:35;12.50;93.00
29345;DHT22;16339;48.748;2.222;2023-04-25T04:27:06;12.50;93.10
29345;DHT22;16339;48.748;2.222;2023-04-25T04:29:36;12.60;93.10
29345;DHT22;16339;48.748;2.222;2023-04-25T04:32:05;12.60;93.10
29345;DHT22;16339;48.748;2.222;2023-04-25T04:34:34;12.60;93.20
29345;DHT22;16339;48.748;2.222;2023-04-25T04:37:03;12.70;93.20
29345;DHT22;16339;48.748;2.222;2023-04-25T04:39:32;12.70;93.20
29345;DHT22;16339;48.748;2.222;2023-04-25T04:42:01;12.70;93.30
29345;DHT22;16339;48.748;2.222;2023-04-25T04:44:33;12.80;93.30
29345;DHT22;16339;48.748;2.222;2023-04-25T04:47:02;12.70;93.40
29345;DHT22;16339;48.748;2.222;2023-04-25T04:49:31;12.60;93.50
29345;DHT22;16339;48.748;2.222;2023-04-25T04:52:00;12.70;93.60
29345;DHT22;16339;48.748;2.222;2023-04-25T04:54:29;12.70;93.60
29345;DHT22;16339;48.748;2.222;2023-04-25T04:56:57;12.70;93.80
29345;DHT22;16339;48.748;2.222;2023-04-25T04:59:26;12.70;93.90
29345;DHT22;16339;48.748;2.222;2023-04-25T05:01:57;12.70;94.00
29345;DHT22;16339;48.748;2.222;2023-04-25T05:04:26;12.70;94.00
29345;DHT22;16339;48.748;2.222;2023-04-25T05:06:55;12.50;94.00
29345;DHT22;16339;48.748;2.222;2023-04-25T05:09:23;12.50;94.00
29345;DHT22;16339;48.748;2.222;2023-04-25T05:11:52;12.60;94.10
29345;DHT22;16339;48.748;2.222;2023-04-25T05:14:21;12.50;94.10
29345;DHT22;16339;48.748;2.222;2023-04-25T05:16:50;12.30;94.00
29345;DHT22;16339;48.748;2.222;2023-04-25T05:19:21;12.40;94.20
29345;DHT22;16339;48.748;2.222;2023-04-25T05:21:50;12.40;94.10
29345;DHT22;16339;48.748;2.222;2023-04-25T05:24:18;12.60;94.10
29345;DHT22;16339;48.748;2.222;2023-04-25T05:26:47;12.40;94.00
29345;DHT22;16339;48.748;2.222;2023-04-25T05:29:16;12.40;94.20
29345;DHT22;16339;48.748;2.222;2023-04-25T05:31:45;12.40;94.40
29345;DHT22;16339;48.748;2.222;2023-04-25T05:34:13;12.50;94.80
29345;DHT22;16339;48.748;2.222;2023-04-25T05:36:45;12.60;94.50
29345;DHT22;16339;48.748;2.222;2023-04-25T05:39:14;12.60;94.40
29345;DHT22;16339;48.748;2.222;2023-04-25T05:41:43;12.70;94.40
29345;DHT22;16339;48.748;2.222;2023-04-25T05:44:11;12.70;94.40
29345;DHT22;16339;48.748;2.222;2023-04-25T05:46:41;12.80;94.20
29345;DHT22;16339;48.748;2.222;2023-04-25T05:49:10;12.60;94.10
29345;DHT22;16339;48.748;2.222;2023-04-25T05:51:39;12.70;94.20
29345;DHT22;16339;48.748;2.222;2023-04-25T05:54:10;12.70;94.20
29345;DHT22;16339;48.748;2.222;2023-04-25T05:56:39;12.70;94.10
29345;DHT22;16339;48.748;2.222;2023-04-25T05:59:07;12.70;94.00
29345;DHT22;16339;48.748;2.222;2023-04-25T06:01:36;12.60;94.10
29345;DHT22;16339;48.748;2.222;2023-04-25T06:04:05;12.60;94.40
29345;DHT22;16339;48.748;2.222;2023-04-25T06:06:34;12.50;94.60
29345;DHT22;16339;48.748;2.222;2023-04-25T06:09:03;12.50;94.40
29345;DHT22;16339;48.748;2.222;2023-04-25T06:11:34;12.40;94.70
29345;DHT22;16339;48.748;2.222;2023-04-25T06:14:03;12.40;94.70
29345;DHT22;16339;48.748;2.222;2023-04-25T06:16:32;12.20;94.90
29345;DHT22;16339;48.748;2.222;2023-04-25T06:19:01;12.30;94.90
29345;DHT22;16339;48.748;2.222;2023-04-25T06:21:29;12.30;95.00
29345;DHT22;16339;48.748;2.222;2023-04-25T06:23:58;12.40;94.90
29345;DHT22;16339;48.748;2.222;2023-04-25T06:26:27;12.30;95.10
29345;DHT22;16339;48.748;2.222;2023-04-25T06:28:58;12.40;95.30
29345;DHT22;16339;48.748;2.222;2023-04-25T06:31:27;12.40;95.10
29345;DHT22;16339;48.748;2.222;2023-04-25T06:33:58;12.50;95.10
29345;DHT22;16339;48.748;2.222;2023-04-25T06:36:26;12.50;94.80
29345;DHT22;16339;48.748;2.222;2023-04-25T06:38:56;12.60;94.90
29345;DHT22;16339;48.748;2.222;2023-04-25T06:41:24;12.50;94.70
29345;DHT22;16339;48.748;2.222;2023-04-25T06:43:53;12.40;94.80
29345;DHT22;16339;48.748;2.222;2023-04-25T06:46:24;12.40;95.00
29345;DHT22;16339;48.748;2.222;2023-04-25T06:48:53;12.40;94.90
29345;DHT22;16339;48.748;2.222;2023-04-25T06:51:22;12.50;95.10
29345;DHT22;16339;48.748;2.222;2023-04-25T06:53:54;12.50;95.10
29345;DHT22;16339;48.748;2.222;2023-04-25T06:56:22;12.50;95.40
29345;DHT22;16339;48.748;2.222;2023-04-25T06:58:51;12.60;95.30
29345;DHT22;16339;48.748;2.222;2023-04-25T07:01:20;12.60;96.10
29345;DHT22;16339;48.748;2.222;2023-04-25T07:03:51;12.70;95.60
29345;DHT22;16339;48.748;2.222;2023-04-25T07:06:20;12.70;95.20
29345;DHT22;16339;48.748;2.222;2023-04-25T07:08:49;12.70;94.90
29345;DHT22;16339;48.748;2.222;2023-04-25T07:11:17;12.50;94.40
29345;DHT22;16339;48.748;2.222;2023-04-25T07:13:46;12.60;94.70
29345;DHT22;16339;48.748;2.222;2023-04-25T07:16:15;12.70;94.50
29345;DHT22;16339;48.748;2.222;2023-04-25T07:18:44;12.90;94.80
29345;DHT22;16339;48.748;2.222;2023-04-25T07:21:15;12.80;94.40
29345;DHT22;16339;48.748;2.222;2023-04-25T07:23:44;12.80;93.70
29345;DHT22;16339;48.748;2.222;2023-04-25T07:26:13;12.70;93.80
29345;DHT22;16339;48.748;2.222;2023-04-25T07:28:41;12.80;94.10
29345;DHT22;16339;48.748;2.222;2023-04-25T07:31:10;12.70;94.00
29345;DHT22;16339;48.748;2.222;2023-04-25T07:33:39;12.80;93.80
29345;DHT22;16339;48.748;2.222;2023-04-25T07:36:08;13.00;93.90
29345;DHT22;16339;48.748;2.222;2023-04-25T07:38:39;13.00;93.50
29345;DHT22;16339;48.748;2.222;2023-04-25T07:41:08;13.10;93.50
29345;DHT22;16339;48.748;2.222;2023-04-25T07:43:37;13.20;93.00
29345;DHT22;16339;48.748;2.222;2023-04-25T07:46:05;13.30;93.00
29345;DHT22;16339;48.748;2.222;2023-04-25T07:48:34;13.40;93.20
29345;DHT22;16339;48.748;2.222;2023-04-25T07:51:03;13.40;93.00
29345;DHT22;16339;48.748;2.222;2023-04-25T07:53:33;13.20;92.50
29345;DHT22;16339;48.748;2.222;2023-04-25T07:56:06;13.20;92.70
29345;DHT22;16339;48.748;2.222;2023-04-25T07:58:35;13.30;93.20
29345;DHT22;16339;48.748;2.222;2023-04-25T08:01:04;13.10;93.50
29345;DHT22;16339;48.748;2.222;2023-04-25T08:03:32;13.00;93.20
29345;DHT22;16339;48.748;2.222;2023-04-25T08:06:01;12.90;93.40
29345;DHT22;16339;48.748;2.222;2023-04-25T08:08:30;12.80;93.70
29345;DHT22;16339;48.748;2.222;2023-04-25T08:10:58;12.70;93.60
29345;DHT22;16339;48.748;2.222;2023-04-25T08:13:29;12.70;93.50
29345;DHT22;16339;48.748;2.222;2023-04-25T08:15:58;12.60;93.50
29345;DHT22;16339;48.748;2.222;2023-04-25T08:18:27;12.80;93.90
29345;DHT22;16339;48.748;2.222;2023-04-25T08:20:56;12.80;93.60
29345;DHT22;16339;48.748;2.222;2023-04-25T08:23:25;13.00;93.20
29345;DHT22;16339;48.748;2.222;2023-04-25T08:25:53;13.00;92.60
29345;DHT22;16339;48.748;2.222;2023-04-25T08:28:22;13.10;92.60
29345;DHT22;16339;48.748;2.222;2023-04-25T08:30:54;13.20;92.30
29345;DHT22;16339;48.748;2.222;2023-04-25T08:33:22;13.10;91.70
29345;DHT22;16339;48.748;2.222;2023-04-25T08:35:51;13.30;92.00
29345;DHT22;16339;48.748;2.222;2023-04-25T08:38:20;13.50;92.20
29345;DHT22;16339;48.748;2.222;2023-04-25T08:40:50;13.40;91.60
29345;DHT22;16339;48.748;2.222;2023-04-25T08:43:19;13.50;91.50
29345;DHT22;16339;48.748;2.222;2023-04-25T08:45:48;13.40;91.40
29345;DHT22;16339;48.748;2.222;2023-04-25T08:48:19;13.50;91.40
29345;DHT22;16339;48.748;2.222;2023-04-25T08:50:50;13.40;91.00
29345;DHT22;16339;48.748;2.222;2023-04-25T08:53:22;13.50;91.20
29345;DHT22;16339;48.748;2.222;2023-04-25T08:55:54;13.50;91.20
29345;DHT22;16339;48.748;2.222;2023-04-25T08:58:24;13.10;91.00
29345;DHT22;16339;48.748;2.222;2023-04-25T09:00:52;13.10;91.20
29345;DHT22;16339;48.748;2.222;2023-04-25T09:03:24;13.10;91.80
29345;DHT22;16339;48.748;2.222;2023-04-25T09:05:53;13.10;91.60
29345;DHT22;16339;48.748;2.222;2023-04-25T09:08:23;12.80;91.30
29345;DHT22;16339;48.748;2.222;2023-04-25T09:10:52;12.90;91.40
29345;DHT22;16339;48.748;2.222;2023-04-25T09:13:25;12.80;91.10
29345;DHT22;16339;48.748;2.222;2023-04-25T09:15:55;12.90;91.40
29345;DHT22;16339;48.748;2.222;2023-04-25T09:18:28;13.10;91.50
29345;DHT22;16339;48.748;2.222;2023-04-25T09:21:05;13.10;91.10
29345;DHT22;16339;48.748;2.222;2023-04-25T09:23:44;13.30;91.50
29345;DHT22;16339;48.748;2.222;2023-04-25T09:26:15;13.50;91.00
29345;DHT22;16339;48.748;2.222;2023-04-25T09:28:43;13.60;90.90
29345;DHT22;16339;48.748;2.222;2023-04-25T09:31:21;13.70;90.50
29345;DHT22;16339;48.748;2.222;2023-04-25T09:33:59;13.50;90.20
29345;DHT22;16339;48.748;2.222;2023-04-25T09:36:29;13.40;90.50
29345;DHT22;16339;48.748;2.222;2023-04-25T09:38:59;13.40;90.00
29345;DHT22;16339;48.748;2.222;2023-04-25T09:41:29;13.30;90.60
29345;DHT22;16339;48.748;2.222;2023-04-25T09:43:58;13.30;90.10
29345;DHT22;16339;48.748;2.222;2023-04-25T09:46:33;13.40;90.50
29345;DHT22;16339;48.748;2.222;2023-04-25T09:49:06;13.50;90.50
29345;DHT22;16339;48.748;2.222;2023-04-25T09:51:35;13.60;90.40
29345;DHT22;16339;48.748;2.222;2023-04-25T09:54:03;13.70;90.30
29345;DHT22;16339;48.748;2.222;2023-04-25T09:56:35;13.80;90.80
29345;DHT22;16339;48.748;2.222;2023-04-25T09:59:05;13.70;89.50
29345;DHT22;16339;48.748;2.222;2023-04-25T10:01:35;13.50;90.00
29345;DHT22;16339;48.748;2.222;2023-04-25T10:04:11;13.40;89.90
29345;DHT22;16339;48.748;2.222;2023-04-25T10:06:42;13.30;90.30
29345;DHT22;16339;48.748;2.222;2023-04-25T10:09:11;13.40;90.50
29345;DHT22;16339;48.748;2.222;2023-04-25T10:11:41;13.60;90.90
29345;DHT22;16339;48.748;2.222;2023-04-25T10:14:11;13.70;90.40
29345;DHT22;16339;48.748;2.222;2023-04-25T10:16:41;13.70;89.10
29345;DHT22;16339;48.748;2.222;2023-04-25T10:19:13;13.80;89.30
29345;DHT22;16339;48.748;2.222;2023-04-25T10:21:48;13.80;89.20
29345;DHT22;16339;48.748;2.222;2023-04-25T10:24:19;13.90;89.30
29345;DHT22;16339;48.748;2.222;2023-04-25T10:26:49;13.80;86.90
29345;DHT22;16339;48.748;2.222;2023-04-25T10:29:25;13.60;87.20
29345;DHT22;16339;48.748;2.222;2023-04-25T10:31:54;13.80;88.90
29345;DHT22;16339;48.748;2.222;2023-04-25T10:34:38;13.90;89.20
29345;DHT22;16339;48.748;2.222;2023-04-25T10:37:11;13.90;88.40
29345;DHT22;16339;48.748;2.222;2023-04-25T10:39:40;14.00;86.90
29345;DHT22;16339;48.748;2.222;2023-04-25T10:42:09;14.20;86.50
29345;DHT22;16339;48.748;2.222;2023-04-25T10:44:38;14.40;85.60
29345;DHT22;16339;48.748;2.222;2023-04-25T10:47:08;14.50;86.50
29345;DHT22;16339;48.748;2.222;2023-04-25T10:49:42;14.50;85.60
29345;DHT22;16339;48.748;2.222;2023-04-25T10:52:16;14.40;84.10
29345;DHT22;16339;48.748;2.222;2023-04-25T10:54:48;14.40;83.80
29345;DHT22;16339;48.748;2.222;2023-04-25T10:57:27;14.40;82.20
29345;DHT22;16339;48.748;2.222;2023-04-25T11:00:01;14.20;82.10
29345;DHT22;16339;48.748;2.222;2023-04-25T11:02:37;14.20;84.00
29345;DHT22;16339;48.748;2.222;2023-04-25T11:05:09;14.30;83.10
29345;DHT22;16339;48.748;2.222;2023-04-25T11:07:43;14.30;83.80
29345;DHT22;16339;48.748;2.222;2023-04-25T11:10:14;14.30;83.60
29345;DHT22;16339;48.748;2.222;2023-04-25T11:12:42;14.40;83.70
29345;DHT22;16339;48.748;2.222;2023-04-25T11:15:11;14.40;84.60
29345;DHT22;16339;48.748;2.222;2023-04-25T11:17:40;14.40;83.30
29345;DHT22;16339;48.748;2.222;2023-04-25T11:20:14;14.30;83.30
29345;DHT22;16339;48.748;2.222;2023-04-25T11:22:45;14.40;84.80
29345;DHT22;16339;48.748;2.222;2023-04-25T11:25:15;14.30;83.50
29345;DHT22;16339;48.748;2.222;2023-04-25T11:27:50;14.40;84.30
29345;DHT22;16339;48.748;2.222;2023-04-25T11:30:21;14.40;83.70
29345;DHT22;16339;48.748;2.222;2023-04-25T11:32:50;14.50;85.00
29345;DHT22;16339;48.748;2.222;2023-04-25T11:35:22;14.60;83.90
29345;DHT22;16339;48.748;2.222;2023-04-25T11:37:51;14.70;83.50
29345;DHT22;16339;48.748;2.222;2023-04-25T11:40:20;14.80;82.80
29345;DHT22;16339;48.748;2.222;2023-04-25T11:42:49;14.90;82.10
29345;DHT22;16339;48.748;2.222;2023-04-25T11:45:17;14.90;81.20
29345;DHT22;16339;48.748;2.222;2023-04-25T11:47:47;14.80;80.10
29345;DHT22;16339;48.748;2.222;2023-04-25T11:50:15;14.90;80.20
29345;DHT22;16339;48.748;2.222;2023-04-25T11:52:49;14.90;79.50
29345;DHT22;16339;48.748;2.222;2023-04-25T11:55:21;15.10;80.10
29345;DHT22;16339;48.748;2.222;2023-04-25T11:57:49;15.20;80.10
29345;DHT22;16339;48.748;2.222;2023-04-25T12:00:20;15.30;81.00
29345;DHT22;16339;48.748;2.222;2023-04-25T12:02:51;15.20;77.20
29345;DHT22;16339;48.748;2.222;2023-04-25T12:05:23;15.20;78.70
29345;DHT22;16339;48.748;2.222;2023-04-25T12:07:54;15.20;78.20
29345;DHT22;16339;48.748;2.222;2023-04-25T12:10:24;15.40;79.00
29345;DHT22;16339;48.748;2.222;2023-04-25T12:12:53;15.40;78.50
29345;DHT22;16339;48.748;2.222;2023-04-25T12:15:24;15.50;77.10
29345;DHT22;16339;48.748;2.222;2023-04-25T12:17:54;15.50;77.90
29345;DHT22;16339;48.748;2.222;2023-04-25T12:20:24;15.60;77.00
29345;DHT22;16339;48.748;2.222;2023-04-25T12:22:57;15.70;75.20
29345;DHT22;16339;48.748;2.222;2023-04-25T12:25:36;15.70;76.00
29345;DHT22;16339;48.748;2.222;2023-04-25T12:28:13;15.80;77.40
29345;DHT22;16339;48.748;2.222;2023-04-25T12:30:56;15.60;75.70
29345;DHT22;16339;48.748;2.222;2023-04-25T12:33:27;15.60;76.40
29345;DHT22;16339;48.748;2.222;2023-04-25T12:35:56;15.40;76.00
29345;DHT22;16339;48.748;2.222;2023-04-25T12:38:31;15.40;75.50
29345;DHT22;16339;48.748;2.222;2023-04-25T12:41:06;15.40;76.30
29345;DHT22;16339;48.748;2.222;2023-04-25T12:43:35;15.40;76.60
29345;DHT22;16339;48.748;2.222;2023-04-25T12:46:04;15.40;76.40
29345;DHT22;16339;48.748;2.222;2023-04-25T12:48:33;15.40;76.30
29345;DHT22;16339;48.748;2.222;2023-04-25T12:51:03;15.40;78.00
29345;DHT22;16339;48.748;2.222;2023-04-25T12:53:35;15.40;76.40
29345;DHT22;16339;48.748;2.222;2023-04-25T12:56:07;15.60;77.70
29345;DHT22;16339;48.748;2.222;2023-04-25T12:58:36;15.50;77.00
29345;DHT22;16339;48.748;2.222;2023-04-25T13:01:05;15.70;76.30
29345;DHT22;16339;48.748;2.222;2023-04-25T13:03:34;15.50;76.40
29345;DHT22;16339;48.748;2.222;2023-04-25T13:06:03;15.60;76.60
29345;DHT22;16339;48.748;2.222;2023-04-25T13:08:39;15.70;76.40
29345;DHT22;16339;48.748;2.222;2023-04-25T13:11:14;15.80;75.60
29345;DHT22;16339;48.748;2.222;2023-04-25T13:13:50;16.00;76.30
29345;DHT22;16339;48.748;2.222;2023-04-25T13:16:19;15.90;74.60
29345;DHT22;16339;48.748;2.222;2023-04-25T13:18:49;16.00;75.90
29345;DHT22;16339;48.748;2.222;2023-04-25T13:21:20;16.10;76.80
29345;DHT22;16339;48.748;2.222;2023-04-25T13:23:51;16.20;76.20
29345;DHT22;16339;48.748;2.222;2023-04-25T13:26:20;16.30;73.80
29345;DHT22;16339;48.748;2.222;2023-04-25T13:28:48;16.30;74.80
29345;DHT22;16339;48.748;2.222;2023-04-25T13:31:17;16.30;74.00
29345;DHT22;16339;48.748;2.222;2023-04-25T13:33:48;16.40;73.20
29345;DHT22;16339;48.748;2.222;2023-04-25T13:36:34;16.30;73.30
29345;DHT22;16339;48.748;2.222;2023-04-25T13:39:13;16.30;74.90
29345;DHT22;16339;48.748;2.222;2023-04-25T13:41:46;16.40;75.90
29345;DHT22;16339;48.748;2.222;2023-04-25T13:44:17;16.40;73.80
29345;DHT22;16339;48.748;2.222;2023-04-25T13:46:46;16.30;73.40
29345;DHT22;16339;48.748;2.222;2023-04-25T13:49:14;16.20;73.50
29345;DHT22;16339;48.748;2.222;2023-04-25T13:51:43;16.20;71.50
29345;DHT22;16339;48.748;2.222;2023-04-25T13:54:14;16.00;71.20
29345;DHT22;16339;48.748;2.222;2023-04-25T13:56:45;15.90;72.80
29345;DHT22;16339;48.748;2.222;2023-04-25T13:59:14;15.70;70.60
29345;DHT22;16339;48.748;2.222;2023-04-25T14:01:43;15.50;70.40
29345;DHT22;16339;48.748;2.222;2023-04-25T14:04:11;15.40;72.40
29345;DHT22;16339;48.748;2.222;2023-04-25T14:06:40;15.40;72.30
29345;DHT22;16339;48.748;2.222;2023-04-25T14:09:09;15.30;71.90
29345;DHT22;16339;48.748;2.222;2023-04-25T14:11:41;15.40;73.00
29345;DHT22;16339;48.748;2.222;2023-04-25T14:14:10;15.40;72.90
29345;DHT22;16339;48.748;2.222;2023-04-25T14:16:41;15.40;73.20
29345;DHT22;16339;48.748;2.222;2023-04-25T14:19:10;15.50;74.00
29345;DHT22;16339;48.748;2.222;2023-04-25T14:21:38;15.50;72.90
29345;DHT22;16339;48.748;2.222;2023-04-25T14:24:07;15.60;73.80
29345;DHT22;16339;48.748;2.222;2023-04-25T14:26:39;15.60;73.00
29345;DHT22;16339;48.748;2.222;2023-04-25T14:29:11;15.60;73.80
29345;DHT22;16339;48.748;2.222;2023-04-25T14:31:40;15.70;75.00
29345;DHT22;16339;48.748;2.222;2023-04-25T14:34:09;15.80;73.60
29345;DHT22;16339;48.748;2.222;2023-04-25T14:36:37;15.90;73.60
29345;DHT22;16339;48.748;2.222;2023-04-25T14:39:07;16.00;73.10
29345;DHT22;16339;48.748;2.222;2023-04-25T14:41:38;16.10;73.10
29345;DHT22;16339;48.748;2.222;2023-04-25T14:44:06;16.10;73.80
29345;DHT22;16339;48.748;2.222;2023-04-25T14:46:38;16.10;72.70
29345;DHT22;16339;48.748;2.222;2023-04-25T14:49:06;16.10;73.00
29345;DHT22;16339;48.748;2.222;2023-04-25T14:51:35;16.20;72.40
29345;DHT22;16339;48.748;2.222;2023-04-25T14:54:04;16.10;72.40
29345;DHT22;16339;48.748;2.222;2023-04-25T14:56:33;16.20;72.40
29345;DHT22;16339;48.748;2.222;2023-04-25T14:59:02;16.20;72.10
29345;DHT22;16339;48.748;2.222;2023-04-25T15:01:30;16.20;72.20
29345;DHT22;16339;48.748;2.222;2023-04-25T15:04:02;16.20;71.60
29345;DHT22;16339;48.748;2.222;2023-04-25T15:06:31;16.20;70.60
29345;DHT22;16339;48.748;2.222;2023-04-25T15:08:59;16.20;69.30
29345;DHT22;16339;48.748;2.222;2023-04-25T15:11:28;16.20;69.60
29345;DHT22;16339;48.748;2.222;2023-04-25T15:13:57;16.20;70.00
29345;DHT22;16339;48.748;2.222;2023-04-25T15:16:26;16.30;69.20
29345;DHT22;16339;48.748;2.222;2023-04-25T15:18:56;16.40;69.60
29345;DHT22;16339;48.748;2.222;2023-04-25T15:21:27;16.50;70.20
29345;DHT22;16339;48.748;2.222;2023-04-25T15:23:56;16.50;71.60
29345;DHT22;16339;48.748;2.222;2023-04-25T15:26:26;16.50;71.60
29345;DHT22;16339;48.748;2.222;2023-04-25T15:28:55;16.80;69.70
29345;DHT22;16339;48.748;2.222;2023-04-25T15:31:24;16.80;68.70
29345;DHT22;16339;48.748;2.222;2023-04-25T15:33:52;16.80;69.10
29345;DHT22;16339;48.748;2.222;2023-04-25T15:36:21;16.90;69.80
29345;DHT22;16339;48.748;2.222;2023-04-25T15:38:53;16.80;68.70
29345;DHT22;16339;48.748;2.222;2023-04-25T15:41:23;16.70;69.00
29345;DHT22;16339;48.748;2.222;2023-04-25T15:43:52;16.70;68.40
29345;DHT22;16339;48.748;2.222;2023-04-25T15:46:21;16.60;69.20